»·PEaware :: N751LU KBLI-KKLS

N751LU :: KBLI-KKLS

FLIGHT INFORMATION

Flight Status: Arrived
Operator: Privately registered:
United States
More flights under this callsign
Pilot: Ewen S. (18928)
Aircraft: BEECH AIRCRAFT SUPER KING AIR 350
(B350)
More flights by this aircraft type
Origin: KBLI Bellingham Intl
United States
Destination: KKLS Kelso-Longview
United States
More flights between these airports :: More routes between these airports
Route: KIENO6 CVV V165 OLM V165 WINLO
File this flight plan on PilotEdge
Remarks:
Altitude:
(Current/Filed)
23,000ft
Speed:
(Current/Filed)
350kts
Departed: 05-Apr-23 01:03 PM
Arrived: 05-Apr-23 01:47 PM
Distance/Time
Traveled:
161nm/0:44
Distance/Time
To Go:
Arrived

Flight Plot

Page will automatically refresh every two minutes.

Flight plan parsing failed; only flown route is shown


Map Options




Map Legend


Flown Route
Filed Route
Departure Airport
Arrival Airport
Navaid (VOR, NDB)
Fix

Horizontal Profiles

Position Reports

Time Latitude Longitude Heading Altitude Ground
Speed
05-Apr-23 12:50 48.793183 -122.532786 167 171ft 0kts
05-Apr-23 12:51 48.793183 -122.532786 167 171ft 0kts
05-Apr-23 12:52 48.793183 -122.532786 167 171ft 0kts
05-Apr-23 12:53 48.793173 -122.532783 166 171ft 2kts
05-Apr-23 12:54 48.797507 -122.535907 356 170ft 23kts
05-Apr-23 12:55 48.800951 -122.536278 333 168ft 0kts
05-Apr-23 12:56 48.800951 -122.536278 333 168ft 0kts
05-Apr-23 12:57 48.800951 -122.536278 333 168ft 0kts
05-Apr-23 12:58 48.800951 -122.536278 333 168ft 0kts
05-Apr-23 12:59 48.801668 -122.536183 14 168ft 0kts
05-Apr-23 13:00 48.801748 -122.536302 285 168ft 0kts
05-Apr-23 13:01 48.801748 -122.536302 285 168ft 0kts
05-Apr-23 13:02 48.783457 -122.537348 180 365ft 148kts
05-Apr-23 13:03 48.742026 -122.559444 204 2378ft 178kts
05-Apr-23 13:04 48.698978 -122.578959 178 4969ft 151kts
05-Apr-23 13:05 48.656050 -122.581240 195 7660ft 159kts
05-Apr-23 13:06 48.611100 -122.597118 196 10209ft 173kts
05-Apr-23 13:07 48.566688 -122.612477 198 12947ft 165kts
05-Apr-23 13:08 48.520140 -122.628798 198 15380ft 176kts
05-Apr-23 13:09 48.471817 -122.645639 198 17780ft 184kts
05-Apr-23 13:10 48.420805 -122.663437 198 19797ft 191kts
05-Apr-23 13:11 48.370444 -122.680793 199 21861ft 184kts
05-Apr-23 13:12 48.318372 -122.699069 198 23156ft 217kts
05-Apr-23 13:13 48.250780 -122.722322 195 23222ft 273kts
05-Apr-23 13:14 48.170416 -122.735276 189 23197ft 297kts
05-Apr-23 13:15 48.087706 -122.746895 189 23193ft 299kts
05-Apr-23 13:16 48.004634 -122.758662 189 23190ft 301kts
05-Apr-23 13:17 47.920940 -122.770485 189 23191ft 302kts
05-Apr-23 13:18 47.837237 -122.782268 189 23197ft 303kts
05-Apr-23 13:19 47.753322 -122.794041 189 23202ft 303kts
05-Apr-23 13:20 47.669207 -122.805785 189 23202ft 303kts
05-Apr-23 13:21 47.585405 -122.817465 189 23211ft 302kts
05-Apr-23 13:22 47.501418 -122.829155 189 23206ft 304kts
05-Apr-23 13:23 47.417202 -122.840801 189 23211ft 303kts
05-Apr-23 13:24 47.331256 -122.852933 189 22223ft 316kts
05-Apr-23 13:25 47.243770 -122.865025 189 20953ft 312kts
05-Apr-23 13:26 47.160462 -122.876130 189 19615ft 292kts
05-Apr-23 13:27 47.080993 -122.886951 189 18234ft 282kts
05-Apr-23 13:28 47.003653 -122.897528 188 16739ft 277kts
05-Apr-23 13:29 46.929035 -122.918768 198 15308ft 269kts
05-Apr-23 13:30 46.856927 -122.946807 198 14118ft 266kts
05-Apr-23 13:31 46.785980 -122.974358 198 12843ft 261kts
05-Apr-23 13:32 46.716489 -123.001262 197 11603ft 255kts
05-Apr-23 13:33 46.649016 -123.027465 197 10406ft 243kts
05-Apr-23 13:34 46.585396 -123.051950 197 9139ft 229kts
05-Apr-23 13:35 46.525005 -123.075238 196 7895ft 220kts
05-Apr-23 13:36 46.466638 -123.097598 194 7024ft 215kts
05-Apr-23 13:37 46.406497 -123.105559 185 6969ft 216kts
05-Apr-23 13:38 46.346612 -123.111194 184 6967ft 215kts
05-Apr-23 13:39 46.287105 -123.116651 184 6359ft 205kts
05-Apr-23 13:40 46.236241 -123.101131 133 5132ft 197kts
05-Apr-23 13:41 46.216452 -123.031108 118 3700ft 163kts
05-Apr-23 13:42 46.192322 -122.987026 140 2040ft 128kts
05-Apr-23 13:43 46.164978 -122.954294 142 1520ft 128kts
05-Apr-23 13:45 46.138081 -122.922086 143 609ft 118kts
05-Apr-23 13:46 46.116588 -122.896820 139 17ft 42kts
05-Apr-23 13:47 46.113579 -122.892648 47 20ft 4kts
05-Apr-23 13:48 46.114102 -122.892793 327 20ft 0kts

Navigation Log

Ident Type
Flight plan parsing failed, navigation log unavailable